sensor_id;sensor_type;location;lat;lon;timestamp;temperature;humidity
70089;HTU21D;57460;47.134;19.888;2022-12-18T00:01:34;2.75;72.97
70089;HTU21D;57460;47.134;19.888;2022-12-18T00:04:03;2.68;73.33
70089;HTU21D;57460;47.134;19.888;2022-12-18T00:06:30;2.82;73.00
70089;HTU21D;57460;47.134;19.888;2022-12-18T00:08:58;2.76;73.17
70089;HTU21D;57460;47.134;19.888;2022-12-18T00:11:27;2.78;73.21
70089;HTU21D;57460;47.134;19.888;2022-12-18T00:13:55;2.80;73.30
70089;HTU21D;57460;47.134;19.888;2022-12-18T00:16:23;2.85;73.22
70089;HTU21D;57460;47.134;19.888;2022-12-18T00:18:52;2.93;73.11
70089;HTU21D;57460;47.134;19.888;2022-12-18T00:21:20;2.90;72.96
70089;HTU21D;57460;47.134;19.888;2022-12-18T00:23:47;2.87;73.26
70089;HTU21D;57460;47.134;19.888;2022-12-18T00:26:16;2.95;73.09
70089;HTU21D;57460;47.134;19.888;2022-12-18T00:28:43;2.95;72.81
70089;HTU21D;57460;47.134;19.888;2022-12-18T00:31:12;2.98;72.62
70089;HTU21D;57460;47.134;19.888;2022-12-18T00:33:38;2.88;73.08
70089;HTU21D;57460;47.134;19.888;2022-12-18T00:38:35;3.05;72.64
70089;HTU21D;57460;47.134;19.888;2022-12-18T00:41:02;3.01;72.66
70089;HTU21D;57460;47.134;19.888;2022-12-18T00:43:28;2.96;72.74
70089;HTU21D;57460;47.134;19.888;2022-12-18T00:45:54;2.98;72.74
70089;HTU21D;57460;47.134;19.888;2022-12-18T00:48:20;3.01;72.73
70089;HTU21D;57460;47.134;19.888;2022-12-18T00:50:48;2.97;72.80
70089;HTU21D;57460;47.134;19.888;2022-12-18T00:53:14;2.95;72.89
70089;HTU21D;57460;47.134;19.888;2022-12-18T00:55:41;2.95;72.94
70089;HTU21D;57460;47.134;19.888;2022-12-18T00:58:09;2.88;73.15
70089;HTU21D;57460;47.134;19.888;2022-12-18T01:00:35;2.88;73.28
70089;HTU21D;57460;47.134;19.888;2022-12-18T01:03:02;2.84;73.62
70089;HTU21D;57460;47.134;19.888;2022-12-18T01:05:28;2.76;74.12
70089;HTU21D;57460;47.134;19.888;2022-12-18T01:07:55;2.82;74.09
70089;HTU21D;57460;47.134;19.888;2022-12-18T01:10:21;2.93;73.81
70089;HTU21D;57460;47.134;19.888;2022-12-18T01:12:47;2.95;73.59
70089;HTU21D;57460;47.134;19.888;2022-12-18T01:15:14;2.99;73.35
70089;HTU21D;57460;47.134;19.888;2022-12-18T01:17:41;2.97;73.48
70089;HTU21D;57460;47.134;19.888;2022-12-18T01:20:08;2.95;73.70
70089;HTU21D;57460;47.134;19.888;2022-12-18T01:22:35;2.96;73.77
70089;HTU21D;57460;47.134;19.888;2022-12-18T01:25:03;2.95;73.85
70089;HTU21D;57460;47.134;19.888;2022-12-18T01:27:30;2.89;74.08
70089;HTU21D;57460;47.134;19.888;2022-12-18T01:29:55;2.90;74.26
70089;HTU21D;57460;47.134;19.888;2022-12-18T01:32:22;2.93;74.29
70089;HTU21D;57460;47.134;19.888;2022-12-18T01:34:48;3.04;73.96
70089;HTU21D;57460;47.134;19.888;2022-12-18T01:37:14;3.02;73.88
70089;HTU21D;57460;47.134;19.888;2022-12-18T01:39:39;2.99;73.98
70089;HTU21D;57460;47.134;19.888;2022-12-18T01:42:14;2.98;74.00
70089;HTU21D;57460;47.134;19.888;2022-12-18T01:47:44;3.01;73.93
70089;HTU21D;57460;47.134;19.888;2022-12-18T01:50:34;2.91;74.15
70089;HTU21D;57460;47.134;19.888;2022-12-18T01:53:23;2.85;74.73
70089;HTU21D;57460;47.134;19.888;2022-12-18T01:55:57;2.87;74.94
70089;HTU21D;57460;47.134;19.888;2022-12-18T02:01:24;3.04;74.81
70089;HTU21D;57460;47.134;19.888;2022-12-18T02:03:50;3.09;74.54
70089;HTU21D;57460;47.134;19.888;2022-12-18T02:06:27;3.09;74.62
70089;HTU21D;57460;47.134;19.888;2022-12-18T02:09:15;3.19;74.19
70089;HTU21D;57460;47.134;19.888;2022-12-18T02:12:13;3.19;73.70
70089;HTU21D;57460;47.134;19.888;2022-12-18T02:17:23;3.15;73.06
70089;HTU21D;57460;47.134;19.888;2022-12-18T02:20:24;3.05;73.22
70089;HTU21D;57460;47.134;19.888;2022-12-18T02:23:17;2.98;73.38
70089;HTU21D;57460;47.134;19.888;2022-12-18T02:26:06;2.97;73.39
70089;HTU21D;57460;47.134;19.888;2022-12-18T02:28:41;2.94;73.38
70089;HTU21D;57460;47.134;19.888;2022-12-18T02:31:13;2.89;73.67
70089;HTU21D;57460;47.134;19.888;2022-12-18T02:33:41;2.82;74.04
70089;HTU21D;57460;47.134;19.888;2022-12-18T02:36:10;2.82;74.05
70089;HTU21D;57460;47.134;19.888;2022-12-18T02:38:39;2.85;73.94
70089;HTU21D;57460;47.134;19.888;2022-12-18T02:41:06;2.88;73.75
70089;HTU21D;57460;47.134;19.888;2022-12-18T02:43:32;2.84;73.66
70089;HTU21D;57460;47.134;19.888;2022-12-18T02:46:00;2.82;73.76
70089;HTU21D;57460;47.134;19.888;2022-12-18T02:48:33;2.66;74.35
70089;HTU21D;57460;47.134;19.888;2022-12-18T02:51:08;2.80;74.54
70089;HTU21D;57460;47.134;19.888;2022-12-18T02:53:46;2.96;73.84
70089;HTU21D;57460;47.134;19.888;2022-12-18T02:56:21;2.96;73.43
70089;HTU21D;57460;47.134;19.888;2022-12-18T02:59:02;3.00;72.68
70089;HTU21D;57460;47.134;19.888;2022-12-18T03:05:00;2.85;72.96
70089;HTU21D;57460;47.134;19.888;2022-12-18T03:07:41;2.85;72.95
70089;HTU21D;57460;47.134;19.888;2022-12-18T03:10:13;2.79;73.13
70089;HTU21D;57460;47.134;19.888;2022-12-18T03:12:49;2.79;73.09
70089;HTU21D;57460;47.134;19.888;2022-12-18T03:15:24;2.79;72.88
70089;HTU21D;57460;47.134;19.888;2022-12-18T03:18:01;2.73;73.15
70089;HTU21D;57460;47.134;19.888;2022-12-18T03:20:31;2.71;73.05
70089;HTU21D;57460;47.134;19.888;2022-12-18T03:23:06;2.72;73.09
70089;HTU21D;57460;47.134;19.888;2022-12-18T03:25:35;2.73;73.20
70089;HTU21D;57460;47.134;19.888;2022-12-18T03:28:07;2.76;72.87
70089;HTU21D;57460;47.134;19.888;2022-12-18T03:30:39;2.69;73.05
70089;HTU21D;57460;47.134;19.888;2022-12-18T03:33:12;2.79;72.55
70089;HTU21D;57460;47.134;19.888;2022-12-18T03:35:43;2.69;73.12
70089;HTU21D;57460;47.134;19.888;2022-12-18T03:38:10;2.78;72.59
70089;HTU21D;57460;47.134;19.888;2022-12-18T03:43:23;2.62;72.91
70089;HTU21D;57460;47.134;19.888;2022-12-18T03:46:00;2.53;73.48
70089;HTU21D;57460;47.134;19.888;2022-12-18T03:48:37;2.60;73.41
70089;HTU21D;57460;47.134;19.888;2022-12-18T03:51:16;2.68;72.99
70089;HTU21D;57460;47.134;19.888;2022-12-18T03:53:57;2.68;72.87
70089;HTU21D;57460;47.134;19.888;2022-12-18T03:56:28;2.57;73.16
70089;HTU21D;57460;47.134;19.888;2022-12-18T03:58:57;2.56;73.53
70089;HTU21D;57460;47.134;19.888;2022-12-18T04:01:38;2.66;73.16
70089;HTU21D;57460;47.134;19.888;2022-12-18T04:04:07;2.67;72.81
70089;HTU21D;57460;47.134;19.888;2022-12-18T04:06:35;2.66;72.75
70089;HTU21D;57460;47.134;19.888;2022-12-18T04:09:01;2.61;72.67
70089;HTU21D;57460;47.134;19.888;2022-12-18T04:11:27;2.60;72.67
70089;HTU21D;57460;47.134;19.888;2022-12-18T04:13:57;2.54;72.77
70089;HTU21D;57460;47.134;19.888;2022-12-18T04:16:27;2.47;73.11
70089;HTU21D;57460;47.134;19.888;2022-12-18T04:18:54;2.45;73.05
70089;HTU21D;57460;47.134;19.888;2022-12-18T04:21:20;2.39;73.40
70089;HTU21D;57460;47.134;19.888;2022-12-18T04:23:46;2.44;73.66
70089;HTU21D;57460;47.134;19.888;2022-12-18T04:26:12;2.43;73.12
70089;HTU21D;57460;47.134;19.888;2022-12-18T04:28:37;2.37;73.21
70089;HTU21D;57460;47.134;19.888;2022-12-18T04:31:03;2.37;73.44
70089;HTU21D;57460;47.134;19.888;2022-12-18T04:33:29;2.34;73.56
70089;HTU21D;57460;47.134;19.888;2022-12-18T04:35:55;2.30;73.32
70089;HTU21D;57460;47.134;19.888;2022-12-18T04:38:21;2.27;73.15
70089;HTU21D;57460;47.134;19.888;2022-12-18T04:40:46;2.22;72.84
70089;HTU21D;57460;47.134;19.888;2022-12-18T04:43:12;2.23;73.61
70089;HTU21D;57460;47.134;19.888;2022-12-18T04:45:38;2.24;73.61
70089;HTU21D;57460;47.134;19.888;2022-12-18T04:48:04;2.23;73.46
70089;HTU21D;57460;47.134;19.888;2022-12-18T04:50:30;2.25;73.98
70089;HTU21D;57460;47.134;19.888;2022-12-18T04:52:56;2.13;73.28
70089;HTU21D;57460;47.134;19.888;2022-12-18T04:55:22;2.09;73.39
70089;HTU21D;57460;47.134;19.888;2022-12-18T04:57:48;2.01;73.25
70089;HTU21D;57460;47.134;19.888;2022-12-18T05:00:14;1.97;73.57
70089;HTU21D;57460;47.134;19.888;2022-12-18T05:02:40;1.95;74.38
70089;HTU21D;57460;47.134;19.888;2022-12-18T05:05:06;2.02;74.25
70089;HTU21D;57460;47.134;19.888;2022-12-18T05:07:32;1.87;74.05
70089;HTU21D;57460;47.134;19.888;2022-12-18T05:09:58;1.79;73.86
70089;HTU21D;57460;47.134;19.888;2022-12-18T05:12:24;1.73;73.93
70089;HTU21D;57460;47.134;19.888;2022-12-18T05:14:50;1.68;74.06
70089;HTU21D;57460;47.134;19.888;2022-12-18T05:17:15;1.65;73.99
70089;HTU21D;57460;47.134;19.888;2022-12-18T05:19:41;1.61;73.70
70089;HTU21D;57460;47.134;19.888;2022-12-18T05:22:08;1.48;74.04
70089;HTU21D;57460;47.134;19.888;2022-12-18T05:24:34;1.42;73.93
70089;HTU21D;57460;47.134;19.888;2022-12-18T05:26:59;1.33;74.06
70089;HTU21D;57460;47.134;19.888;2022-12-18T05:29:25;1.29;74.51
70089;HTU21D;57460;47.134;19.888;2022-12-18T05:31:51;1.33;74.54
70089;HTU21D;57460;47.134;19.888;2022-12-18T05:34:17;1.37;74.36
70089;HTU21D;57460;47.134;19.888;2022-12-18T05:36:42;1.37;73.92
70089;HTU21D;57460;47.134;19.888;2022-12-18T05:39:08;1.32;73.77
70089;HTU21D;57460;47.134;19.888;2022-12-18T05:41:34;1.34;73.58
70089;HTU21D;57460;47.134;19.888;2022-12-18T05:44:00;1.35;73.09
70089;HTU21D;57460;47.134;19.888;2022-12-18T05:46:26;1.16;73.31
70089;HTU21D;57460;47.134;19.888;2022-12-18T05:48:52;1.09;73.77
70089;HTU21D;57460;47.134;19.888;2022-12-18T05:51:20;1.11;73.93
70089;HTU21D;57460;47.134;19.888;2022-12-18T05:53:47;1.11;73.74
70089;HTU21D;57460;47.134;19.888;2022-12-18T05:56:19;1.04;73.76
70089;HTU21D;57460;47.134;19.888;2022-12-18T05:58:46;0.95;73.55
70089;HTU21D;57460;47.134;19.888;2022-12-18T06:01:16;0.92;74.14
70089;HTU21D;57460;47.134;19.888;2022-12-18T06:03:42;0.92;74.12
70089;HTU21D;57460;47.134;19.888;2022-12-18T06:06:26;0.93;74.12
70089;HTU21D;57460;47.134;19.888;2022-12-18T06:08:52;0.81;73.61
70089;HTU21D;57460;47.134;19.888;2022-12-18T06:11:22;0.75;74.12
70089;HTU21D;57460;47.134;19.888;2022-12-18T06:13:53;0.69;74.22
70089;HTU21D;57460;47.134;19.888;2022-12-18T06:16:20;0.69;74.72
70089;HTU21D;57460;47.134;19.888;2022-12-18T06:18:45;0.62;74.28
70089;HTU21D;57460;47.134;19.888;2022-12-18T06:21:12;0.60;74.76
70089;HTU21D;57460;47.134;19.888;2022-12-18T06:23:38;0.53;74.47
70089;HTU21D;57460;47.134;19.888;2022-12-18T06:26:06;0.58;75.09
70089;HTU21D;57460;47.134;19.888;2022-12-18T06:28:32;0.61;74.84
70089;HTU21D;57460;47.134;19.888;2022-12-18T06:30:58;0.49;73.44
70089;HTU21D;57460;47.134;19.888;2022-12-18T06:33:27;0.42;73.92
70089;HTU21D;57460;47.134;19.888;2022-12-18T06:35:54;0.35;74.15
70089;HTU21D;57460;47.134;19.888;2022-12-18T06:38:20;0.36;74.77
70089;HTU21D;57460;47.134;19.888;2022-12-18T06:40:45;0.38;74.61
70089;HTU21D;57460;47.134;19.888;2022-12-18T06:43:11;0.30;74.58
70089;HTU21D;57460;47.134;19.888;2022-12-18T06:45:37;0.31;74.65
70089;HTU21D;57460;47.134;19.888;2022-12-18T06:48:02;0.32;74.96
70089;HTU21D;57460;47.134;19.888;2022-12-18T06:50:28;0.44;75.73
70089;HTU21D;57460;47.134;19.888;2022-12-18T06:52:54;0.66;74.88
70089;HTU21D;57460;47.134;19.888;2022-12-18T06:55:20;0.79;73.44
70089;HTU21D;57460;47.134;19.888;2022-12-18T06:57:45;0.80;73.26
70089;HTU21D;57460;47.134;19.888;2022-12-18T07:00:11;0.75;72.89
70089;HTU21D;57460;47.134;19.888;2022-12-18T07:02:37;0.69;72.86
70089;HTU21D;57460;47.134;19.888;2022-12-18T07:05:03;0.67;73.54
70089;HTU21D;57460;47.134;19.888;2022-12-18T07:07:29;0.69;74.17
70089;HTU21D;57460;47.134;19.888;2022-12-18T07:09:55;0.78;74.28
70089;HTU21D;57460;47.134;19.888;2022-12-18T07:12:21;0.87;74.30
70089;HTU21D;57460;47.134;19.888;2022-12-18T07:14:46;0.97;74.21
70089;HTU21D;57460;47.134;19.888;2022-12-18T07:17:12;0.94;73.51
70089;HTU21D;57460;47.134;19.888;2022-12-18T07:19:38;0.89;73.27
70089;HTU21D;57460;47.134;19.888;2022-12-18T07:22:04;0.98;73.99
70089;HTU21D;57460;47.134;19.888;2022-12-18T07:24:29;1.04;73.71
70089;HTU21D;57460;47.134;19.888;2022-12-18T07:26:55;1.07;73.75
70089;HTU21D;57460;47.134;19.888;2022-12-18T07:29:21;1.19;73.19
70089;HTU21D;57460;47.134;19.888;2022-12-18T07:31:47;1.26;72.52
70089;HTU21D;57460;47.134;19.888;2022-12-18T07:34:14;1.23;72.63
70089;HTU21D;57460;47.134;19.888;2022-12-18T07:36:40;1.33;72.52
70089;HTU21D;57460;47.134;19.888;2022-12-18T07:39:06;1.39;72.44
70089;HTU21D;57460;47.134;19.888;2022-12-18T07:41:32;1.66;71.67
70089;HTU21D;57460;47.134;19.888;2022-12-18T07:43:58;1.79;70.55
70089;HTU21D;57460;47.134;19.888;2022-12-18T07:46:24;1.78;70.61
70089;HTU21D;57460;47.134;19.888;2022-12-18T07:48:50;1.72;71.02
70089;HTU21D;57460;47.134;19.888;2022-12-18T07:51:17;1.67;71.41
70089;HTU21D;57460;47.134;19.888;2022-12-18T07:53:43;1.69;71.51
70089;HTU21D;57460;47.134;19.888;2022-12-18T07:56:11;1.81;71.70
70089;HTU21D;57460;47.134;19.888;2022-12-18T07:58:37;2.11;71.38
70089;HTU21D;57460;47.134;19.888;2022-12-18T08:01:06;2.23;69.73
70089;HTU21D;57460;47.134;19.888;2022-12-18T08:03:32;2.27;69.29
70089;HTU21D;57460;47.134;19.888;2022-12-18T08:05:59;2.30;70.31
70089;HTU21D;57460;47.134;19.888;2022-12-18T08:08:25;2.31;69.74
70089;HTU21D;57460;47.134;19.888;2022-12-18T08:10:51;2.41;70.93
70089;HTU21D;57460;47.134;19.888;2022-12-18T08:13:16;2.51;70.87
70089;HTU21D;57460;47.134;19.888;2022-12-18T08:15:42;2.46;70.33
70089;HTU21D;57460;47.134;19.888;2022-12-18T08:18:08;2.53;68.91
70089;HTU21D;57460;47.134;19.888;2022-12-18T08:20:34;2.58;69.36
70089;HTU21D;57460;47.134;19.888;2022-12-18T08:23:00;2.73;70.20
70089;HTU21D;57460;47.134;19.888;2022-12-18T08:25:25;2.87;69.99
70089;HTU21D;57460;47.134;19.888;2022-12-18T08:27:51;3.14;67.62
70089;HTU21D;57460;47.134;19.888;2022-12-18T08:30:17;3.30;66.46
70089;HTU21D;57460;47.134;19.888;2022-12-18T08:32:43;3.55;67.83
70089;HTU21D;57460;47.134;19.888;2022-12-18T08:35:09;3.54;67.23
70089;HTU21D;57460;47.134;19.888;2022-12-18T08:37:37;3.72;64.14
70089;HTU21D;57460;47.134;19.888;2022-12-18T08:40:03;3.88;67.10
70089;HTU21D;57460;47.134;19.888;2022-12-18T08:42:29;4.04;66.78
70089;HTU21D;57460;47.134;19.888;2022-12-18T08:45:13;4.14;64.82
70089;HTU21D;57460;47.134;19.888;2022-12-18T08:47:41;4.08;64.59
70089;HTU21D;57460;47.134;19.888;2022-12-18T08:50:09;4.13;63.63
70089;HTU21D;57460;47.134;19.888;2022-12-18T08:52:35;4.29;66.20
70089;HTU21D;57460;47.134;19.888;2022-12-18T08:55:00;4.82;65.52
70089;HTU21D;57460;47.134;19.888;2022-12-18T08:57:26;5.35;65.26
70089;HTU21D;57460;47.134;19.888;2022-12-18T08:59:52;5.53;63.58
70089;HTU21D;57460;47.134;19.888;2022-12-18T09:02:18;5.60;63.42
70089;HTU21D;57460;47.134;19.888;2022-12-18T09:04:46;5.85;63.81
70089;HTU21D;57460;47.134;19.888;2022-12-18T09:07:12;6.24;61.12
70089;HTU21D;57460;47.134;19.888;2022-12-18T09:09:38;6.46;62.28
70089;HTU21D;57460;47.134;19.888;2022-12-18T09:12:04;6.88;57.44
70089;HTU21D;57460;47.134;19.888;2022-12-18T09:14:30;7.10;57.72
70089;HTU21D;57460;47.134;19.888;2022-12-18T09:16:55;7.01;54.42
70089;HTU21D;57460;47.134;19.888;2022-12-18T09:19:21;6.76;55.33
70089;HTU21D;57460;47.134;19.888;2022-12-18T09:21:47;6.81;62.23
70089;HTU21D;57460;47.134;19.888;2022-12-18T09:24:14;7.11;56.73
70089;HTU21D;57460;47.134;19.888;2022-12-18T09:26:40;7.49;60.42
70089;HTU21D;57460;47.134;19.888;2022-12-18T09:29:06;8.11;56.70
70089;HTU21D;57460;47.134;19.888;2022-12-18T09:31:35;8.44;59.08
70089;HTU21D;57460;47.134;19.888;2022-12-18T09:34:02;8.71;57.21
70089;HTU21D;57460;47.134;19.888;2022-12-18T09:36:27;8.92;55.61
70089;HTU21D;57460;47.134;19.888;2022-12-18T09:38:53;9.31;54.13
70089;HTU21D;57460;47.134;19.888;2022-12-18T09:47:10;8.19;54.77
70089;HTU21D;57460;47.134;19.888;2022-12-18T09:49:46;7.90;55.76
70089;HTU21D;57460;47.134;19.888;2022-12-18T09:52:19;7.84;56.87
70089;HTU21D;57460;47.134;19.888;2022-12-18T09:55:00;7.49;57.64
70089;HTU21D;57460;47.134;19.888;2022-12-18T09:57:28;7.73;56.84
70089;HTU21D;57460;47.134;19.888;2022-12-18T10:00:24;8.96;56.04
70089;HTU21D;57460;47.134;19.888;2022-12-18T10:03:01;9.96;50.34
70089;HTU21D;57460;47.134;19.888;2022-12-18T10:08:37;10.90;50.85
70089;HTU21D;57460;47.134;19.888;2022-12-18T10:14:15;10.25;51.31
70089;HTU21D;57460;47.134;19.888;2022-12-18T10:19:39;9.03;52.15
70089;HTU21D;57460;47.134;19.888;2022-12-18T10:27:25;8.91;55.11
70089;HTU21D;57460;47.134;19.888;2022-12-18T10:29:52;8.65;56.50
70089;HTU21D;57460;47.134;19.888;2022-12-18T10:32:24;9.24;55.68
70089;HTU21D;57460;47.134;19.888;2022-12-18T10:34:53;9.49;53.86
70089;HTU21D;57460;47.134;19.888;2022-12-18T10:37:22;9.25;50.39
70089;HTU21D;57460;47.134;19.888;2022-12-18T10:40:15;8.98;55.60
70089;HTU21D;57460;47.134;19.888;2022-12-18T10:42:41;9.17;55.05
70089;HTU21D;57460;47.134;19.888;2022-12-18T10:45:15;10.15;51.21
70089;HTU21D;57460;47.134;19.888;2022-12-18T10:47:44;10.77;48.71
70089;HTU21D;57460;47.134;19.888;2022-12-18T10:50:31;11.31;46.35
70089;HTU21D;57460;47.134;19.888;2022-12-18T10:53:04;11.91;46.02
70089;HTU21D;57460;47.134;19.888;2022-12-18T10:55:44;12.63;44.96
70089;HTU21D;57460;47.134;19.888;2022-12-18T10:58:30;13.34;44.67
70089;HTU21D;57460;47.134;19.888;2022-12-18T11:03:39;15.28;40.40
70089;HTU21D;57460;47.134;19.888;2022-12-18T11:06:23;15.96;38.83
70089;HTU21D;57460;47.134;19.888;2022-12-18T11:09:20;16.64;37.62
70089;HTU21D;57460;47.134;19.888;2022-12-18T11:11:52;16.21;35.15
70089;HTU21D;57460;47.134;19.888;2022-12-18T11:14:31;16.01;33.02
70089;HTU21D;57460;47.134;19.888;2022-12-18T11:16:59;15.85;38.26
70089;HTU21D;57460;47.134;19.888;2022-12-18T11:19:38;16.49;38.12
70089;HTU21D;57460;47.134;19.888;2022-12-18T11:22:26;17.24;33.16
70089;HTU21D;57460;47.134;19.888;2022-12-18T11:27:38;16.57;37.01
70089;HTU21D;57460;47.134;19.888;2022-12-18T11:33:18;13.73;40.82
70089;HTU21D;57460;47.134;19.888;2022-12-18T11:35:53;12.42;47.49
70089;HTU21D;57460;47.134;19.888;2022-12-18T11:38:22;11.79;45.13
70089;HTU21D;57460;47.134;19.888;2022-12-18T11:41:38;10.88;46.22
70089;HTU21D;57460;47.134;19.888;2022-12-18T11:43:51;10.31;49.60
70089;HTU21D;57460;47.134;19.888;2022-12-18T11:49:01;9.72;53.18
70089;HTU21D;57460;47.134;19.888;2022-12-18T11:51:48;9.49;54.47
70089;HTU21D;57460;47.134;19.888;2022-12-18T11:54:16;9.19;52.41
70089;HTU21D;57460;47.134;19.888;2022-12-18T11:56:58;8.51;52.15
70089;HTU21D;57460;47.134;19.888;2022-12-18T12:02:21;7.90;55.87
70089;HTU21D;57460;47.134;19.888;2022-12-18T12:07:46;7.37;55.00
70089;HTU21D;57460;47.134;19.888;2022-12-18T12:16:17;7.25;56.13
70089;HTU21D;57460;47.134;19.888;2022-12-18T12:19:30;7.17;53.81
70089;HTU21D;57460;47.134;19.888;2022-12-18T12:30:05;7.04;57.08
70089;HTU21D;57460;47.134;19.888;2022-12-18T12:35:47;7.24;57.19
70089;HTU21D;57460;47.134;19.888;2022-12-18T12:38:37;7.23;54.76
70089;HTU21D;57460;47.134;19.888;2022-12-18T12:41:11;6.90;55.62
70089;HTU21D;57460;47.134;19.888;2022-12-18T12:44:01;6.88;57.32
70089;HTU21D;57460;47.134;19.888;2022-12-18T12:46:32;7.01;56.71
70089;HTU21D;57460;47.134;19.888;2022-12-18T12:49:14;7.04;56.23
70089;HTU21D;57460;47.134;19.888;2022-12-18T12:51:45;6.80;55.72
70089;HTU21D;57460;47.134;19.888;2022-12-18T12:54:23;6.71;55.59
70089;HTU21D;57460;47.134;19.888;2022-12-18T12:57:21;6.65;57.31
70089;HTU21D;57460;47.134;19.888;2022-12-18T12:59:52;6.50;55.86
70089;HTU21D;57460;47.134;19.888;2022-12-18T13:05:28;6.52;56.88
70089;HTU21D;57460;47.134;19.888;2022-12-18T13:08:06;6.54;57.55
70089;HTU21D;57460;47.134;19.888;2022-12-18T13:10:40;6.59;57.42
70089;HTU21D;57460;47.134;19.888;2022-12-18T13:13:14;6.66;56.03
70089;HTU21D;57460;47.134;19.888;2022-12-18T13:15:47;6.61;54.16
70089;HTU21D;57460;47.134;19.888;2022-12-18T13:18:20;6.56;57.33
70089;HTU21D;57460;47.134;19.888;2022-12-18T13:28:49;6.00;57.97
70089;HTU21D;57460;47.134;19.888;2022-12-18T13:31:10;5.78;57.23
70089;HTU21D;57460;47.134;19.888;2022-12-18T13:33:44;5.68;57.23
70089;HTU21D;57460;47.134;19.888;2022-12-18T13:36:28;5.74;59.19
70089;HTU21D;57460;47.134;19.888;2022-12-18T13:39:24;5.75;58.62
70089;HTU21D;57460;47.134;19.888;2022-12-18T13:44:58;5.61;59.96
70089;HTU21D;57460;47.134;19.888;2022-12-18T13:47:33;5.62;58.29
70089;HTU21D;57460;47.134;19.888;2022-12-18T13:50:02;5.69;59.99
70089;HTU21D;57460;47.134;19.888;2022-12-18T13:52:37;5.76;59.71
70089;HTU21D;57460;47.134;19.888;2022-12-18T13:55:14;5.75;59.51
70089;HTU21D;57460;47.134;19.888;2022-12-18T13:57:41;5.68;59.96
70089;HTU21D;57460;47.134;19.888;2022-12-18T14:00:33;5.53;59.86
70089;HTU21D;57460;47.134;19.888;2022-12-18T14:02:59;5.46;60.48
70089;HTU21D;57460;47.134;19.888;2022-12-18T14:05:31;5.39;59.31
70089;HTU21D;57460;47.134;19.888;2022-12-18T14:08:08;5.36;60.44
70089;HTU21D;57460;47.134;19.888;2022-12-18T14:10:41;5.35;60.66
70089;HTU21D;57460;47.134;19.888;2022-12-18T14:13:10;5.36;60.39
70089;HTU21D;57460;47.134;19.888;2022-12-18T14:15:42;5.33;60.55
70089;HTU21D;57460;47.134;19.888;2022-12-18T14:20:46;5.31;60.60
70089;HTU21D;57460;47.134;19.888;2022-12-18T14:25:53;5.41;61.35
70089;HTU21D;57460;47.134;19.888;2022-12-18T14:28:19;5.39;60.87
70089;HTU21D;57460;47.134;19.888;2022-12-18T14:30:48;5.37;61.05
70089;HTU21D;57460;47.134;19.888;2022-12-18T14:33:19;5.35;61.16
70089;HTU21D;57460;47.134;19.888;2022-12-18T14:36:13;5.31;60.68
70089;HTU21D;57460;47.134;19.888;2022-12-18T14:38:48;5.26;60.88
70089;HTU21D;57460;47.134;19.888;2022-12-18T14:41:26;5.17;60.72
70089;HTU21D;57460;47.134;19.888;2022-12-18T14:44:06;5.09;61.38
70089;HTU21D;57460;47.134;19.888;2022-12-18T14:49:03;4.89;60.81
70089;HTU21D;57460;47.134;19.888;2022-12-18T14:51:32;4.78;61.55
70089;HTU21D;57460;47.134;19.888;2022-12-18T14:54:04;4.67;62.19
70089;HTU21D;57460;47.134;19.888;2022-12-18T14:56:37;4.54;62.20
70089;HTU21D;57460;47.134;19.888;2022-12-18T14:59:29;4.42;62.61
70089;HTU21D;57460;47.134;19.888;2022-12-18T15:02:11;4.22;62.55
70089;HTU21D;57460;47.134;19.888;2022-12-18T15:04:42;4.10;62.79
70089;HTU21D;57460;47.134;19.888;2022-12-18T15:07:23;4.04;63.23
70089;HTU21D;57460;47.134;19.888;2022-12-18T15:10:12;3.98;63.44
70089;HTU21D;57460;47.134;19.888;2022-12-18T15:12:45;3.87;63.51
70089;HTU21D;57460;47.134;19.888;2022-12-18T15:17:59;3.77;63.36
70089;HTU21D;57460;47.134;19.888;2022-12-18T15:20:27;3.70;63.24
70089;HTU21D;57460;47.134;19.888;2022-12-18T15:22:53;3.53;63.36
70089;HTU21D;57460;47.134;19.888;2022-12-18T15:25:34;3.40;63.41
70089;HTU21D;57460;47.134;19.888;2022-12-18T15:28:03;3.33;63.63
70089;HTU21D;57460;47.134;19.888;2022-12-18T15:30:29;3.31;63.62
70089;HTU21D;57460;47.134;19.888;2022-12-18T15:33:16;3.16;63.37
70089;HTU21D;57460;47.134;19.888;2022-12-18T15:35:42;3.06;63.71
70089;HTU21D;57460;47.134;19.888;2022-12-18T15:38:08;3.01;63.86
70089;HTU21D;57460;47.134;19.888;2022-12-18T15:40:34;2.94;64.03
70089;HTU21D;57460;47.134;19.888;2022-12-18T15:43:00;2.85;64.14
70089;HTU21D;57460;47.134;19.888;2022-12-18T15:45:45;2.75;64.37
70089;HTU21D;57460;47.134;19.888;2022-12-18T15:48:22;2.69;64.54
70089;HTU21D;57460;47.134;19.888;2022-12-18T15:50:50;2.64;64.69
70089;HTU21D;57460;47.134;19.888;2022-12-18T15:53:19;2.58;64.95
70089;HTU21D;57460;47.134;19.888;2022-12-18T15:55:45;2.51;65.21
70089;HTU21D;57460;47.134;19.888;2022-12-18T15:58:30;2.43;65.29
70089;HTU21D;57460;47.134;19.888;2022-12-18T16:00:58;2.27;65.90
70089;HTU21D;57460;47.134;19.888;2022-12-18T16:03:25;2.19;66.43
70089;HTU21D;57460;47.134;19.888;2022-12-18T16:05:51;2.15;66.58
70089;HTU21D;57460;47.134;19.888;2022-12-18T16:08:17;2.16;66.36
70089;HTU21D;57460;47.134;19.888;2022-12-18T16:10:43;2.14;66.17
70089;HTU21D;57460;47.134;19.888;2022-12-18T16:13:16;2.12;66.63
70089;HTU21D;57460;47.134;19.888;2022-12-18T16:15:44;1.97;68.04
70089;HTU21D;57460;47.134;19.888;2022-12-18T16:18:11;1.95;67.01
70089;HTU21D;57460;47.134;19.888;2022-12-18T16:20:38;1.97;66.33
70089;HTU21D;57460;47.134;19.888;2022-12-18T16:23:04;1.94;66.85
70089;HTU21D;57460;47.134;19.888;2022-12-18T16:25:30;1.87;67.24
70089;HTU21D;57460;47.134;19.888;2022-12-18T16:27:57;1.85;66.81
70089;HTU21D;57460;47.134;19.888;2022-12-18T16:30:26;1.90;66.55
70089;HTU21D;57460;47.134;19.888;2022-12-18T16:32:54;1.87;66.44
70089;HTU21D;57460;47.134;19.888;2022-12-18T16:35:21;1.75;67.05
70089;HTU21D;57460;47.134;19.888;2022-12-18T16:37:47;1.54;67.65
70089;HTU21D;57460;47.134;19.888;2022-12-18T16:40:15;1.35;68.09
70089;HTU21D;57460;47.134;19.888;2022-12-18T16:42:43;1.25;68.61
70089;HTU21D;57460;47.134;19.888;2022-12-18T16:45:13;1.25;68.46
70089;HTU21D;57460;47.134;19.888;2022-12-18T16:47:40;1.32;68.39
70089;HTU21D;57460;47.134;19.888;2022-12-18T16:50:09;1.36;68.39
70089;HTU21D;57460;47.134;19.888;2022-12-18T16:52:35;1.37;68.21
70089;HTU21D;57460;47.134;19.888;2022-12-18T16:55:03;1.33;68.21
70089;HTU21D;57460;47.134;19.888;2022-12-18T16:57:29;1.33;68.11
70089;HTU21D;57460;47.134;19.888;2022-12-18T16:59:55;1.26;68.68
70089;HTU21D;57460;47.134;19.888;2022-12-18T17:02:24;1.08;68.93
70089;HTU21D;57460;47.134;19.888;2022-12-18T17:04:56;1.07;69.00
70089;HTU21D;57460;47.134;19.888;2022-12-18T17:07:23;1.09;68.77
70089;HTU21D;57460;47.134;19.888;2022-12-18T17:09:49;1.10;68.60
70089;HTU21D;57460;47.134;19.888;2022-12-18T17:12:16;1.14;68.38